Time;durP1;ratioP1;P1;durP2;ratioP2;P2;SDS_P1;SDS_P2;PMS_P1;PMS_P2;Temp;Humidity;BMP_temperature;BMP_pressure;BME280_temperature;BME280_humidity;BME280_pressure;Samples;Min_cycle;Max_cycle;Signal;HPM_P1;HPM_P2
2023/12/19 00:01:50;;;;;;;4.40;2.37;;;;;;;4.17;100.00;96580.09;5134822;27;20467;-57
2023/12/19 00:04:21;;;;;;;1.53;1.43;;;;;;;4.15;100.00;96577.63;5134307;27;20439;-57
2023/12/19 00:06:49;;;;;;;1.80;1.70;;;;;;;4.14;100.00;96576.03;5134951;27;20449;-56
2023/12/19 00:09:18;;;;;;;4.63;3.83;;;;;;;4.15;100.00;96577.63;5134920;27;20462;-57
2023/12/19 00:11:46;;;;;;;1.13;1.10;;;;;;;4.14;100.00;96572.59;5135324;27;20434;-56
2023/12/19 00:14:15;;;;;;;1.77;1.67;;;;;;;4.11;100.00;96571.19;5134732;27;20462;-57
2023/12/19 00:16:43;;;;;;;1.93;1.83;;;;;;;4.10;100.00;96566.16;5135124;27;20487;-57
2023/12/19 00:19:12;;;;;;;4.03;1.70;;;;;;;4.09;100.00;96569.75;5134534;27;20422;-56
2023/12/19 00:21:42;;;;;;;5.00;1.17;;;;;;;3.99;100.00;96570.16;5134956;27;20467;-56
2023/12/19 00:24:10;;;;;;;1.80;1.57;;;;;;;4.04;100.00;96569.53;5134460;27;20434;-57
2023/12/19 00:26:39;;;;;;;1.53;1.43;;;;;;;3.88;100.00;96572.50;5134679;27;20465;-56
2023/12/19 00:29:08;;;;;;;3.20;1.80;;;;;;;3.94;100.00;96571.75;5134495;27;20526;-57
2023/12/19 00:31:36;;;;;;;4.20;1.70;;;;;;;3.96;100.00;96581.03;5134395;27;20461;-57
2023/12/19 00:34:05;;;;;;;2.07;1.97;;;;;;;3.98;100.00;96572.94;5134038;27;20431;-57
2023/12/19 00:36:34;;;;;;;1.33;1.30;;;;;;;3.83;100.00;96568.69;5134242;27;20442;-57
2023/12/19 00:39:04;;;;;;;1.43;1.33;;;;;;;3.76;100.00;96570.47;5134952;27;20449;-56
2023/12/19 00:41:33;;;;;;;1.80;1.70;;;;;;;3.84;100.00;96572.91;5134261;27;20446;-56
2023/12/19 00:44:03;;;;;;;4.87;2.27;;;;;;;3.85;100.00;96564.03;5134473;27;20487;-56
2023/12/19 00:46:32;;;;;;;1.40;1.30;;;;;;;3.89;100.00;96563.66;5134451;27;20520;-56
2023/12/19 00:49:01;;;;;;;1.70;1.60;;;;;;;3.92;100.00;96569.31;5134157;27;20438;-58
2023/12/19 00:51:29;;;;;;;6.00;3.03;;;;;;;3.82;100.00;96566.22;5133477;27;21266;-56
2023/12/19 00:53:58;;;;;;;2.57;1.80;;;;;;;3.67;100.00;96550.66;5134510;27;20426;-56
2023/12/19 00:56:28;;;;;;;1.80;1.70;;;;;;;3.67;100.00;96550.66;5133745;27;20427;-56
2023/12/19 00:58:57;;;;;;;2.10;1.37;;;;;;;3.64;100.00;96545.78;5133951;27;20445;-56
2023/12/19 01:01:26;;;;;;;6.83;1.33;;;;;;;3.74;100.00;96558.56;5133987;27;20808;-57
2023/12/19 01:03:55;;;;;;;1.63;1.27;;;;;;;3.72;100.00;96561.38;5134115;27;20518;-56
2023/12/19 01:06:24;;;;;;;2.80;2.60;;;;;;;3.72;100.00;96560.56;5133548;27;20441;-56
2023/12/19 01:08:53;;;;;;;1.80;1.33;;;;;;;3.69;100.00;96559.13;5133967;27;20462;-56
2023/12/19 01:11:21;;;;;;;1.50;1.50;;;;;;;3.67;100.00;96568.19;5133916;27;20574;-56
2023/12/19 01:13:51;;;;;;;2.60;2.40;;;;;;;3.61;100.00;96555.88;5133339;27;20484;-56
2023/12/19 01:16:20;;;;;;;1.67;1.57;;;;;;;3.62;100.00;96562.72;5107045;27;20981;-56
2023/12/19 01:18:49;;;;;;;1.83;1.73;;;;;;;3.65;100.00;96567.59;5133114;27;20979;-56
2023/12/19 01:21:17;;;;;;;1.20;1.20;;;;;;;3.48;100.00;96559.25;5134173;27;20523;-56
2023/12/19 01:23:46;;;;;;;10.43;1.77;;;;;;;3.48;100.00;96547.97;5133525;27;20964;-56
2023/12/19 01:26:14;;;;;;;2.17;2.07;;;;;;;3.32;100.00;96535.16;5133862;27;20774;-57
2023/12/19 01:28:55;;;;;;;5.03;3.60;;;;;;;3.47;100.00;96554.19;5133296;27;20438;-56
2023/12/19 01:31:24;;;;;;;1.07;0.97;;;;;;;3.57;100.00;96547.59;5133514;27;20478;-56
2023/12/19 01:33:53;;;;;;;2.23;1.53;;;;;;;3.64;100.00;96551.03;5133492;27;20435;-56
2023/12/19 01:36:22;;;;;;;1.90;1.80;;;;;;;3.67;100.00;96549.84;5133195;27;20445;-57
2023/12/19 01:38:50;;;;;;;1.50;1.20;;;;;;;3.50;100.00;96538.91;5133135;27;20899;-57
2023/12/19 01:41:19;;;;;;;1.10;1.10;;;;;;;3.64;100.00;96547.63;5133501;27;20470;-56
2023/12/19 01:43:48;;;;;;;3.40;1.53;;;;;;;3.64;100.00;96547.63;5106650;27;20456;-56
2023/12/19 01:46:18;;;;;;;2.13;1.07;;;;;;;3.67;100.00;96539.34;5132558;27;20438;-57
2023/12/19 01:48:47;;;;;;;0.80;0.60;;;;;;;3.62;100.00;96526.84;5132947;27;20939;-57
2023/12/19 01:51:16;;;;;;;0.87;0.67;;;;;;;3.65;100.00;96536.94;5132320;27;20497;-56
2023/12/19 01:53:47;;;;;;;1.30;1.27;;;;;;;3.65;100.00;96528.25;5132483;27;20442;-56
2023/12/19 01:56:18;;;;;;;2.53;1.17;;;;;;;3.66;100.00;96525.47;5132675;27;20435;-57
2023/12/19 01:58:48;;;;;;;1.20;1.10;;;;;;;3.65;100.00;96523.03;5132493;27;20450;-57
2023/12/19 02:01:20;;;;;;;1.30;1.20;;;;;;;3.61;100.00;96511.31;5132897;27;20431;-56
2023/12/19 02:03:49;;;;;;;1.00;1.00;;;;;;;3.47;100.00;96496.53;5133360;27;20453;-57
2023/12/19 02:06:19;;;;;;;1.93;1.63;;;;;;;3.67;100.00;96521.00;5132427;27;20439;-57
2023/12/19 02:08:48;;;;;;;7.13;0.60;;;;;;;3.73;100.00;96523.66;5132096;27;20447;-57
2023/12/19 02:11:17;;;;;;;0.47;0.47;;;;;;;3.69;100.00;96514.56;5132252;27;20825;-57
2023/12/19 02:13:46;;;;;;;1.00;1.00;;;;;;;3.66;100.00;96517.59;5132927;27;20480;-57
2023/12/19 02:16:15;;;;;;;1.00;0.93;;;;;;;3.67;100.00;96527.06;5105039;27;20442;-57
2023/12/19 02:18:45;;;;;;;1.13;1.13;;;;;;;3.63;100.00;96522.41;5118858;27;20442;-56
2023/12/19 02:21:14;;;;;;;1.03;0.87;;;;;;;3.65;100.00;96521.22;5132689;27;21026;-56
2023/12/19 02:23:44;;;;;;;0.50;0.40;;;;;;;3.59;100.00;96521.97;5132190;27;20449;-56
2023/12/19 02:26:13;;;;;;;1.13;0.90;;;;;;;3.53;100.00;96520.16;5132552;27;20491;-56
2023/12/19 02:28:41;;;;;;;1.13;1.13;;;;;;;3.35;100.00;96514.63;5132182;27;20442;-57
2023/12/19 02:31:10;;;;;;;0.90;0.77;;;;;;;3.22;100.00;96485.75;5132775;27;20513;-57
2023/12/19 02:33:38;;;;;;;1.57;1.47;;;;;;;3.26;100.00;96487.00;5132003;28;20434;-56
2023/12/19 02:36:07;;;;;;;0.63;0.43;;;;;;;3.44;100.00;96521.31;5131963;28;20426;-57
2023/12/19 02:38:36;;;;;;;0.80;0.80;;;;;;;3.36;100.00;96518.06;5131962;27;20431;-57
2023/12/19 02:41:07;;;;;;;1.60;1.33;;;;;;;3.34;100.00;96512.22;5132558;28;20451;-56
2023/12/19 02:43:36;;;;;;;2.40;2.07;;;;;;;3.27;100.00;96490.41;5131875;27;20430;-56
2023/12/19 02:46:20;;;;;;;1.90;1.80;;;;;;;3.31;100.00;96500.31;5131399;28;20942;-57
2023/12/19 02:48:48;;;;;;;1.17;1.10;;;;;;;3.18;100.00;96487.16;5132070;27;20503;-57
2023/12/19 02:51:19;;;;;;;2.07;1.97;;;;;;;3.25;100.00;96508.94;5130948;27;20486;-57
2023/12/19 02:53:48;;;;;;;0.83;0.77;;;;;;;3.20;100.00;96516.59;5132319;27;20438;-57
2023/12/19 02:56:18;;;;;;;2.63;1.40;;;;;;;3.17;100.00;96509.91;5131387;28;20441;-57
2023/12/19 02:58:47;;;;;;;0.67;0.50;;;;;;;2.54;100.00;96427.19;5132015;27;20477;-57
2023/12/19 03:01:15;;;;;;;1.47;1.10;;;;;;;3.18;100.00;96519.41;5131912;28;20522;-57
2023/12/19 03:03:45;;;;;;;1.70;1.60;;;;;;;3.18;100.00;96511.56;5132456;28;20449;-57
2023/12/19 03:06:14;;;;;;;0.67;0.67;;;;;;;3.14;100.00;96512.09;5132060;28;20853;-57
2023/12/19 03:08:46;;;;;;;0.83;0.83;;;;;;;3.14;100.00;96512.09;5132235;28;20509;-57
2023/12/19 03:11:14;;;;;;;7.37;3.13;;;;;;;3.13;100.00;96515.75;5131357;28;20474;-58
2023/12/19 03:13:45;;;;;;;0.73;0.50;;;;;;;3.12;100.00;96508.88;5132472;28;20938;-58
2023/12/19 03:16:13;;;;;;;2.80;1.40;;;;;;;3.08;100.00;96512.91;5131325;27;20953;-57
2023/12/19 03:18:42;;;;;;;3.50;1.40;;;;;;;3.07;100.00;96506.03;5131525;27;20439;-57
2023/12/19 03:21:11;;;;;;;1.20;0.83;;;;;;;3.05;100.00;96508.03;5131986;28;20828;-57
2023/12/19 03:23:39;;;;;;;1.10;1.00;;;;;;;3.05;100.00;96506.22;5131883;28;20438;-57
2023/12/19 03:26:08;;;;;;;0.60;0.30;;;;;;;2.96;100.00;96493.50;5131829;27;20435;-57
2023/12/19 03:28:37;;;;;;;0.60;0.60;;;;;;;3.02;100.00;96501.38;5131444;28;20945;-57
2023/12/19 03:31:07;;;;;;;2.07;1.97;;;;;;;3.08;100.00;96510.28;5131660;28;21046;-58
2023/12/19 03:33:36;;;;;;;1.07;0.93;;;;;;;3.06;100.00;96509.66;5131790;27;20507;-57
2023/12/19 03:36:05;;;;;;;0.77;0.57;;;;;;;3.00;100.00;96516.47;5131782;28;20487;-57
2023/12/19 03:38:35;;;;;;;0.80;0.80;;;;;;;2.96;100.00;96512.59;5133463;27;20541;-57
2023/12/19 03:41:04;;;;;;;0.60;0.60;;;;;;;3.01;100.00;96515.47;5135845;27;20465;-58
2023/12/19 03:43:34;;;;;;;0.80;0.80;;;;;;;3.01;100.00;96512.84;5135519;27;20994;-57
2023/12/19 03:46:04;;;;;;;2.50;2.40;;;;;;;2.94;100.00;96503.31;5135359;27;21014;-57
2023/12/19 03:48:35;;;;;;;0.73;0.73;;;;;;;2.55;100.00;96454.94;5135311;27;20430;-56
2023/12/19 03:51:04;;;;;;;3.40;3.30;;;;;;;2.55;100.00;96517.75;5134777;27;20490;-57
2023/12/19 03:53:33;;;;;;;2.20;0.90;;;;;;;2.20;100.00;96517.88;5135007;27;20427;-57
2023/12/19 03:56:02;;;;;;;3.13;1.77;;;;;;;2.41;100.00;96510.81;5135050;27;20495;-57
2023/12/19 03:58:31;;;;;;;1.73;1.63;;;;;;;2.34;100.00;96499.50;5135060;27;20442;-57
2023/12/19 04:01:01;;;;;;;3.00;2.10;;;;;;;2.53;100.00;96525.00;5135210;27;20502;-57
2023/12/19 04:03:29;;;;;;;6.07;4.07;;;;;;;2.33;100.00;96523.22;5135558;27;20438;-57
2023/12/19 04:05:59;;;;;;;2.67;2.30;;;;;;;2.00;100.00;96507.22;5134300;27;20551;-57
2023/12/19 04:08:28;;;;;;;2.90;2.30;;;;;;;2.00;100.00;96520.28;5135441;27;20442;-57
2023/12/19 04:10:56;;;;;;;3.40;1.23;;;;;;;2.14;100.00;96519.44;5134340;27;20964;-57
2023/12/19 04:13:25;;;;;;;2.13;1.93;;;;;;;2.10;100.00;96520.78;5135453;27;20786;-56
2023/12/19 04:15:54;;;;;;;3.23;2.67;;;;;;;2.23;99.72;96518.31;5134751;27;20434;-56
2023/12/19 04:18:22;;;;;;;2.60;2.30;;;;;;;2.04;99.86;96499.84;5134692;27;20442;-56
2023/12/19 04:20:51;;;;;;;1.80;1.70;;;;;;;2.17;98.80;96515.66;5134506;27;20453;-56
2023/12/19 04:23:21;;;;;;;4.00;3.70;;;;;;;2.18;98.40;96514.63;5134659;27;20438;-57
2023/12/19 04:25:49;;;;;;;13.50;3.40;;;;;;;2.09;97.96;96516.59;5134483;27;20430;-57
2023/12/19 04:28:18;;;;;;;1.70;1.60;;;;;;;2.03;98.57;96513.88;5134566;27;20817;-57
2023/12/19 04:30:47;;;;;;;2.03;1.60;;;;;;;2.03;98.61;96519.94;5134863;27;20475;-57
2023/12/19 04:33:15;;;;;;;3.60;3.40;;;;;;;1.96;97.80;96513.84;5130221;27;20526;-56
2023/12/19 04:35:44;;;;;;;1.77;1.67;;;;;;;1.97;98.57;96522.50;5134242;27;20427;-57
2023/12/19 04:38:13;;;;;;;4.10;3.00;;;;;;;1.73;99.80;96539.31;5134016;27;20434;-57
2023/12/19 04:40:43;;;;;;;4.53;2.00;;;;;;;1.60;100.00;96533.94;5134862;27;20434;-57
2023/12/19 04:43:11;;;;;;;1.80;1.70;;;;;;;1.68;100.00;96536.44;5133632;27;20445;-57
2023/12/19 04:45:40;;;;;;;2.03;1.93;;;;;;;1.76;100.00;96531.13;5134487;27;20505;-57
2023/12/19 04:48:08;;;;;;;3.27;3.07;;;;;;;1.85;100.00;96511.69;5134562;27;20848;-57
2023/12/19 04:50:37;;;;;;;1.80;1.70;;;;;;;1.95;99.96;96530.50;5132887;27;20470;-57
2023/12/19 04:53:06;;;;;;;0.80;0.73;;;;;;;2.03;99.69;96530.38;5133743;27;20498;-58
2023/12/19 04:55:34;;;;;;;4.30;2.57;;;;;;;2.06;99.23;96532.63;5134434;27;20465;-58
2023/12/19 04:58:05;;;;;;;5.20;1.90;;;;;;;2.05;100.00;96540.69;5134526;27;20430;-58
2023/12/19 05:00:33;;;;;;;3.10;2.90;;;;;;;1.95;100.00;96520.03;5134184;27;20447;-57
2023/12/19 05:03:03;;;;;;;6.27;4.20;;;;;;;2.07;100.00;96536.06;5133864;27;20434;-58
2023/12/19 05:05:31;;;;;;;7.00;2.97;;;;;;;2.08;99.67;96551.56;5133725;27;20430;-57
2023/12/19 05:08:00;;;;;;;4.33;1.87;;;;;;;2.10;100.00;96552.19;5133575;27;20942;-57
2023/12/19 05:10:28;;;;;;;3.87;3.57;;;;;;;2.00;100.00;96556.91;5133806;27;20490;-58
2023/12/19 05:12:57;;;;;;;3.00;2.80;;;;;;;1.86;100.00;96547.31;5133179;27;20474;-57
2023/12/19 05:15:27;;;;;;;4.00;2.20;;;;;;;2.02;100.00;96559.34;5133524;27;20457;-57
2023/12/19 05:17:56;;;;;;;4.20;3.73;;;;;;;2.04;100.00;96550.31;5133634;27;20447;-57
2023/12/19 05:20:25;;;;;;;5.00;3.97;;;;;;;2.01;100.00;96558.53;5133520;27;20438;-57
2023/12/19 05:22:54;;;;;;;4.73;3.03;;;;;;;2.09;100.00;96552.38;5133589;27;20517;-57
2023/12/19 05:25:22;;;;;;;3.23;3.13;;;;;;;2.15;99.95;96546.41;5132729;27;20441;-57
2023/12/19 05:27:51;;;;;;;2.60;2.43;;;;;;;2.18;99.51;96543.41;5133730;27;20529;-57
2023/12/19 05:30:19;;;;;;;3.77;3.27;;;;;;;2.09;100.00;96550.56;5133407;27;20831;-57
2023/12/19 05:32:49;;;;;;;3.60;3.30;;;;;;;1.92;100.00;96547.38;5132192;27;20478;-57
2023/12/19 05:35:18;;;;;;;2.30;2.10;;;;;;;2.30;99.84;96555.78;5132543;27;20441;-57
2023/12/19 05:37:46;;;;;;;3.87;3.57;;;;;;;2.08;100.00;96543.72;5133457;27;20466;-57
2023/12/19 05:40:15;;;;;;;2.07;1.90;;;;;;;1.79;100.00;96554.28;5133142;27;20509;-57
2023/12/19 05:42:43;;;;;;;3.53;3.33;;;;;;;1.81;100.00;96554.91;5133123;27;20460;-57
2023/12/19 05:45:13;;;;;;;8.93;4.50;;;;;;;1.77;100.00;96551.84;5133256;27;20919;-57
2023/12/19 05:47:43;;;;;;;3.17;2.77;;;;;;;1.77;100.00;96551.84;5132783;27;20452;-57
2023/12/19 05:50:13;;;;;;;6.80;3.63;;;;;;;1.96;98.36;96537.38;5132337;27;20461;-57
2023/12/19 05:52:42;;;;;;;3.10;2.77;;;;;;;1.97;98.09;96548.63;5132816;27;20895;-57
2023/12/19 05:55:11;;;;;;;2.40;2.00;;;;;;;1.87;98.88;96541.88;5133160;27;20441;-57
2023/12/19 05:57:40;;;;;;;3.03;2.10;;;;;;;2.24;100.00;96547.91;5132358;27;20434;-57
2023/12/19 06:00:09;;;;;;;2.87;2.73;;;;;;;2.32;96.90;96545.97;5132306;27;20938;-56
2023/12/19 06:02:38;;;;;;;1.67;1.40;;;;;;;2.47;96.41;96544.09;5131818;27;20438;-57
2023/12/19 06:05:07;;;;;;;2.10;2.00;;;;;;;2.13;96.28;96551.81;5133318;27;20532;-57
2023/12/19 06:07:38;;;;;;;3.77;1.77;;;;;;;1.92;97.98;96541.34;5132830;27;20537;-56
2023/12/19 06:10:10;;;;;;;1.10;1.00;;;;;;;1.80;97.89;96542.81;5132690;27;20979;-53
2023/12/19 06:12:38;;;;;;;2.00;1.90;;;;;;;1.99;98.75;96551.88;5132234;27;20542;-56
2023/12/19 06:15:11;;;;;;;1.90;1.43;;;;;;;2.02;97.37;96549.72;5132701;27;20491;-57
2023/12/19 06:17:41;;;;;;;1.17;1.10;;;;;;;2.03;97.51;96548.69;5132193;27;20513;-58
2023/12/19 06:20:11;;;;;;;1.07;1.07;;;;;;;2.27;96.82;96545.72;5133265;27;20446;-57
2023/12/19 06:22:42;;;;;;;2.00;1.33;;;;;;;2.49;94.65;96530.81;5132454;27;20434;-57
2023/12/19 06:25:11;;;;;;;3.10;1.27;;;;;;;2.39;95.16;96538.97;5133006;27;20446;-58
2023/12/19 06:27:42;;;;;;;5.47;2.97;;;;;;;2.27;95.50;96523.97;5130744;27;20434;-58
2023/12/19 06:30:12;;;;;;;5.23;1.67;;;;;;;2.26;96.00;96530.19;5131768;27;20484;-58
2023/12/19 06:32:55;;;;;;;1.97;1.87;;;;;;;2.42;94.72;96536.00;5132481;27;20476;-58
2023/12/19 06:35:24;;;;;;;3.07;1.90;;;;;;;2.68;94.05;96532.78;5132377;27;20487;-57
2023/12/19 06:37:54;;;;;;;4.13;3.43;;;;;;;2.92;91.86;96528.91;5132587;27;20499;-58
2023/12/19 06:40:23;;;;;;;3.67;3.47;;;;;;;3.12;90.25;96532.44;5127261;28;20439;-58
2023/12/19 06:42:53;;;;;;;5.27;3.90;;;;;;;3.07;90.79;96532.22;5112050;28;20469;-58
2023/12/19 06:45:22;;;;;;;6.73;6.13;;;;;;;2.51;92.01;96532.22;5131209;28;20509;-57
2023/12/19 06:47:51;;;;;;;9.60;7.00;;;;;;;1.80;97.12;96546.25;5132581;28;20799;-57
2023/12/19 06:50:20;;;;;;;13.67;7.67;;;;;;;1.69;100.00;96535.47;5124843;27;20439;-57
2023/12/19 06:52:49;;;;;;;16.47;6.20;;;;;;;1.72;100.00;96545.56;5129971;28;20549;-57
2023/12/19 06:55:19;;;;;;;5.73;3.77;;;;;;;1.74;100.00;96544.38;5132872;27;20433;-57
2023/12/19 06:57:48;;;;;;;4.03;2.90;;;;;;;1.82;100.00;96484.13;5132097;28;20517;-57
2023/12/19 07:00:18;;;;;;;2.13;2.03;;;;;;;2.48;97.80;96527.38;5132177;27;20842;-57
2023/12/19 07:02:47;;;;;;;1.67;1.57;;;;;;;2.94;97.57;96538.19;5132065;27;20966;-57
2023/12/19 07:05:16;;;;;;;5.20;2.27;;;;;;;2.86;95.79;96519.22;5132029;27;20488;-57
2023/12/19 07:07:47;;;;;;;5.60;3.10;;;;;;;3.05;93.52;96539.47;5132373;28;20448;-57
2023/12/19 07:10:16;;;;;;;1.80;1.47;;;;;;;3.04;94.11;96532.59;5132164;28;20442;-58
2023/12/19 07:12:46;;;;;;;1.47;1.37;;;;;;;3.04;93.72;96516.88;5132449;27;21043;-58
2023/12/19 07:15:15;;;;;;;2.57;2.30;;;;;;;3.38;94.60;96529.16;5136346;27;20444;-59
2023/12/19 07:17:46;;;;;;;2.33;2.13;;;;;;;3.39;97.25;96534.19;5136143;27;20472;-59
2023/12/19 07:20:15;;;;;;;4.00;2.43;;;;;;;3.76;98.12;96527.72;5136592;27;20529;-59
2023/12/19 07:22:44;;;;;;;5.00;2.47;;;;;;;4.44;98.29;96529.25;5109413;27;20431;-57
2023/12/19 07:25:14;;;;;;;4.53;4.10;;;;;;;4.63;97.56;96531.06;5135761;27;20475;-58
2023/12/19 07:27:44;;;;;;;8.97;3.83;;;;;;;5.28;93.15;96529.38;5136501;27;20430;-59
2023/12/19 07:30:15;;;;;;;4.07;3.97;;;;;;;5.78;87.71;96529.38;5135437;27;20435;-59
2023/12/19 07:32:43;;;;;;;4.90;2.83;;;;;;;6.01;84.61;96526.28;5136028;27;20438;-59
2023/12/19 07:35:14;;;;;;;7.47;3.50;;;;;;;6.60;82.52;96514.53;5136219;27;20465;-59
2023/12/19 07:37:43;;;;;;;4.20;3.80;;;;;;;7.02;77.69;96511.13;5135794;27;20442;-58
2023/12/19 07:40:13;;;;;;;5.47;4.83;;;;;;;7.50;73.90;96504.13;5135883;27;20449;-58
2023/12/19 07:42:42;;;;;;;3.97;3.77;;;;;;;8.14;71.14;96513.25;5135624;27;20481;-57
2023/12/19 07:45:11;;;;;;;4.57;4.10;;;;;;;8.38;69.56;96496.47;5135437;27;20434;-58
2023/12/19 07:47:41;;;;;;;6.63;6.13;;;;;;;8.53;69.64;96502.13;5135725;27;20431;-58
2023/12/19 07:50:11;;;;;;;7.83;7.20;;;;;;;8.86;66.91;96494.47;5135467;27;20521;-59
2023/12/19 07:52:40;;;;;;;21.00;6.10;;;;;;;9.03;66.97;96486.66;5135739;27;20817;-58
2023/12/19 07:55:10;;;;;;;6.23;5.30;;;;;;;9.22;66.26;96492.59;5134773;27;20427;-57
2023/12/19 07:57:39;;;;;;;4.73;4.27;;;;;;;9.56;64.75;96481.19;5135410;27;20442;-57
2023/12/19 08:00:09;;;;;;;12.23;8.40;;;;;;;9.50;63.88;96458.28;5109069;27;20546;-56
2023/12/19 08:02:38;;;;;;;12.43;5.80;;;;;;;10.07;62.86;96483.75;5135362;27;20493;-56
2023/12/19 08:05:12;;;;;;;6.10;4.97;;;;;;;10.83;59.99;96474.44;5135576;27;20435;-56
2023/12/19 08:07:41;;;;;;;7.90;3.83;;;;;;;10.72;59.83;96483.31;5134894;27;20521;-55
2023/12/19 08:10:10;;;;;;;7.87;6.20;;;;;;;10.81;60.91;96472.03;5135511;27;20477;-55
2023/12/19 08:12:39;;;;;;;4.50;2.40;;;;;;;11.47;58.47;96472.97;5134727;27;20820;-54
2023/12/19 08:15:10;;;;;;;7.33;4.83;;;;;;;11.40;57.13;96473.16;5135052;27;20485;-55
2023/12/19 08:17:39;;;;;;;4.10;3.67;;;;;;;11.61;56.78;96460.13;5134138;27;20430;-56
2023/12/19 08:20:10;;;;;;;2.30;2.20;;;;;;;11.55;56.59;96467.22;5135312;27;20470;-56
2023/12/19 08:22:39;;;;;;;4.50;4.17;;;;;;;11.62;56.25;96465.19;5134261;27;20430;-57
2023/12/19 08:25:08;;;;;;;3.03;2.67;;;;;;;12.19;55.78;96460.28;5134650;27;20466;-58
2023/12/19 08:27:37;;;;;;;7.00;3.67;;;;;;;12.53;55.03;96461.66;5135101;27;20513;-59
2023/12/19 08:30:07;;;;;;;5.43;4.70;;;;;;;12.34;54.86;96451.63;5134499;27;20588;-59
2023/12/19 08:32:36;;;;;;;8.13;4.70;;;;;;;12.33;54.67;96416.28;5134733;27;20435;-59
2023/12/19 08:35:06;;;;;;;17.00;6.10;;;;;;;11.93;54.22;96338.84;5134424;27;20478;-59
2023/12/19 08:37:36;;;;;;;9.23;4.07;;;;;;;13.36;53.52;96444.13;5134299;27;20781;-59
2023/12/19 08:40:06;;;;;;;5.10;3.87;;;;;;;13.43;52.38;96439.41;5134369;27;20534;-59
2023/12/19 08:42:35;;;;;;;9.50;4.23;;;;;;;13.54;53.56;96440.22;5134384;27;20434;-59
2023/12/19 08:45:04;;;;;;;5.13;4.07;;;;;;;14.18;49.58;96430.81;5125423;27;20438;-60
2023/12/19 08:47:32;;;;;;;6.37;3.97;;;;;;;14.01;51.03;96423.03;5134279;27;20827;-63
2023/12/19 08:50:01;;;;;;;3.43;3.33;;;;;;;14.28;49.96;96428.19;5134733;27;20434;-64
2023/12/19 08:52:30;;;;;;;10.20;3.73;;;;;;;14.56;48.50;96422.34;5134064;27;20482;-64
2023/12/19 08:55:01;;;;;;;8.93;5.73;;;;;;;14.54;48.06;96397.00;5134045;27;20481;-64
2023/12/19 08:57:30;;;;;;;5.60;5.20;;;;;;;14.30;48.29;96420.69;5134001;27;20442;-63
2023/12/19 08:59:59;;;;;;;11.93;5.93;;;;;;;14.84;47.98;96412.19;5134451;27;20443;-62
2023/12/19 09:02:27;;;;;;;8.00;2.50;;;;;;;15.07;47.21;96387.59;5133950;27;20532;-62
2023/12/19 09:04:56;;;;;;;3.97;2.60;;;;;;;14.80;46.84;96358.53;5100223;28;20873;-62
2023/12/19 09:07:25;;;;;;;7.63;4.63;;;;;;;14.82;47.06;96399.13;5126864;27;20487;-61
2023/12/19 09:09:55;;;;;;;5.50;5.20;;;;;;;14.14;47.72;96394.31;5133626;27;20435;-61
2023/12/19 09:12:26;;;;;;;5.13;4.83;;;;;;;14.08;47.56;96392.69;5133238;27;20498;-60
2023/12/19 09:14:54;;;;;;;5.50;4.03;;;;;;;14.27;47.34;96369.78;5133427;27;20470;-60
2023/12/19 09:17:23;;;;;;;4.93;2.67;;;;;;;15.09;45.77;96382.78;5133830;27;20451;-60
2023/12/19 09:19:51;;;;;;;9.63;3.43;;;;;;;15.64;44.56;96377.25;5134228;27;21017;-60
2023/12/19 09:22:20;;;;;;;3.53;2.97;;;;;;;15.62;45.51;96367.91;5133357;27;20442;-59
2023/12/19 09:24:49;;;;;;;2.67;2.30;;;;;;;15.76;45.56;96368.91;5133739;27;20438;-59
2023/12/19 09:27:17;;;;;;;1.90;1.80;;;;;;;16.12;44.06;96358.78;5133589;27;20434;-60
2023/12/19 09:29:48;;;;;;;2.33;2.23;;;;;;;16.46;43.17;96359.59;5133460;27;20435;-61
2023/12/19 09:32:18;;;;;;;2.77;2.57;;;;;;;16.32;44.11;96350.59;5133062;27;20439;-60
2023/12/19 09:34:47;;;;;;;3.37;3.17;;;;;;;16.18;43.56;96355.81;5133232;27;20466;-60
2023/12/19 09:37:15;;;;;;;14.30;1.73;;;;;;;16.40;44.00;96348.13;5132123;27;20434;-60
2023/12/19 09:39:47;;;;;;;2.00;1.10;;;;;;;16.14;44.66;96341.38;5133496;27;20802;-60
2023/12/19 09:42:19;;;;;;;1.47;1.30;;;;;;;16.52;44.79;96332.53;5133565;27;20435;-59
2023/12/19 09:44:49;;;;;;;1.60;1.50;;;;;;;16.41;44.25;96325.66;5132079;27;20438;-59
2023/12/19 09:47:23;;;;;;;2.03;1.93;;;;;;;17.36;43.43;96315.00;5109274;27;20442;-59
2023/12/19 09:49:54;;;;;;;3.07;2.90;;;;;;;16.99;43.88;96310.38;5130282;27;20442;-59
2023/12/19 09:52:25;;;;;;;2.40;2.20;;;;;;;17.44;44.03;96300.97;5125736;27;20493;-59
2023/12/19 09:54:54;;;;;;;2.77;2.57;;;;;;;17.31;43.92;96290.16;5132515;27;20470;-59
2023/12/19 09:57:26;;;;;;;6.83;2.27;;;;;;;18.37;43.03;96289.38;5131895;27;20842;-59
2023/12/19 09:59:59;;;;;;;2.50;2.30;;;;;;;18.32;42.06;96259.94;5132436;27;20947;-59
2023/12/19 10:02:27;;;;;;;1.93;1.80;;;;;;;18.54;40.13;96275.44;5132682;27;20463;-60
2023/12/19 10:04:56;;;;;;;2.33;2.17;;;;;;;18.53;40.03;96253.16;5112557;27;20870;-59
2023/12/19 10:07:27;;;;;;;8.53;3.07;;;;;;;18.14;40.96;96271.56;5128782;27;20435;-58
2023/12/19 10:09:56;;;;;;;5.90;4.30;;;;;;;18.60;41.99;96269.69;5112113;28;20477;-59
2023/12/19 10:12:27;;;;;;;2.87;2.60;;;;;;;17.87;41.74;96261.50;5112305;28;20443;-58
2023/12/19 10:15:15;;;;;;;1.23;1.13;;;;;;;17.63;41.72;96255.44;5112786;27;20877;-57
2023/12/19 10:18:03;;;;;;;9.83;1.27;;;;;;;17.86;41.75;96259.91;5132382;27;20446;-58
2023/12/19 10:20:32;;;;;;;0.87;0.87;;;;;;;18.17;41.31;96247.59;5133104;27;20426;-58
2023/12/19 10:23:04;;;;;;;2.23;2.13;;;;;;;17.76;41.38;96255.50;5132126;27;20450;-58
2023/12/19 10:25:32;;;;;;;1.80;1.70;;;;;;;17.97;41.10;96255.16;5132435;27;20470;-61
2023/12/19 10:28:13;;;;;;;1.10;0.60;;;;;;;18.70;41.80;96244.53;5132508;27;20434;-61
2023/12/19 10:30:45;;;;;;;2.00;1.03;;;;;;;20.73;39.91;96240.41;5132326;27;20530;-62
2023/12/19 10:33:14;;;;;;;0.53;0.53;;;;;;;20.51;37.16;96237.78;5132601;27;20887;-61
2023/12/19 10:35:44;;;;;;;0.53;0.53;;;;;;;20.15;37.44;96224.41;5131979;27;20536;-61
2023/12/19 10:38:14;;;;;;;1.23;1.13;;;;;;;21.35;38.38;96219.50;5132749;27;20438;-61
2023/12/19 10:40:42;;;;;;;1.70;0.50;;;;;;;21.54;36.54;96216.53;5131535;27;20460;-59
2023/12/19 10:43:11;;;;;;;0.70;0.60;;;;;;;21.02;36.76;96209.44;5132595;27;20931;-60
2023/12/19 10:45:40;;;;;;;0.50;0.50;;;;;;;21.09;36.58;96197.13;5131978;28;20461;-60
2023/12/19 10:48:10;;;;;;;0.70;0.47;;;;;;;21.29;36.08;96193.03;5133326;27;20438;-60
2023/12/19 10:50:39;;;;;;;0.50;0.40;;;;;;;21.57;35.24;96188.91;5135993;27;20478;-60
2023/12/19 10:53:10;;;;;;;0.90;0.73;;;;;;;20.32;37.71;96186.03;5135909;27;20445;-60
2023/12/19 10:55:46;;;;;;;1.67;1.60;;;;;;;19.78;37.89;96186.31;5136621;27;20496;-59
2023/12/19 10:58:20;;;;;;;2.80;2.00;;;;;;;19.83;37.97;96184.31;5136221;27;20438;-60
2023/12/19 11:00:51;;;;;;;1.13;1.03;;;;;;;19.98;38.54;96181.25;5136292;27;20473;-59
2023/12/19 11:03:31;;;;;;;0.60;0.50;;;;;;;20.29;36.87;96164.34;5136381;27;20434;-59
2023/12/19 11:06:06;;;;;;;0.73;0.53;;;;;;;20.45;36.00;96174.38;5136119;27;20880;-59
2023/12/19 11:08:37;;;;;;;0.60;0.50;;;;;;;20.79;37.21;96168.31;5136524;27;21002;-59
2023/12/19 11:11:15;;;;;;;0.93;0.50;;;;;;;21.78;36.25;96167.47;5135778;27;20491;-58
2023/12/19 11:13:45;;;;;;;0.73;0.50;;;;;;;22.34;34.25;96156.41;5135991;27;20430;-58
2023/12/19 11:16:25;;;;;;;3.10;0.77;;;;;;;23.43;34.30;96145.69;5135704;27;20473;-58
2023/12/19 11:19:00;;;;;;;5.10;0.87;;;;;;;24.14;32.85;96138.97;5135463;27;20499;-58
2023/12/19 11:21:36;;;;;;;1.80;1.80;;;;;;;23.18;33.02;96140.09;5136550;27;20433;-58
2023/12/19 11:24:08;;;;;;;1.17;0.77;;;;;;;22.86;33.83;96131.88;5136055;27;20522;-58
2023/12/19 11:26:44;;;;;;;0.70;0.60;;;;;;;23.33;33.67;96112.44;5136312;27;20523;-58
2023/12/19 11:29:43;;;;;;;2.97;2.87;;;;;;;22.03;34.75;96121.56;5135953;27;20449;-59
2023/12/19 11:32:39;;;;;;;1.33;0.70;;;;;;;22.55;34.40;96111.34;5135520;27;20946;-59
2023/12/19 11:35:13;;;;;;;2.90;0.70;;;;;;;22.01;35.50;96110.28;5134200;27;20500;-58
2023/12/19 11:37:44;;;;;;;0.93;0.60;;;;;;;22.55;35.27;96100.53;5135540;27;20958;-59
2023/12/19 11:40:38;;;;;;;0.67;0.67;;;;;;;22.19;34.70;96097.53;5135387;27;20435;-59
2023/12/19 11:43:06;;;;;;;0.70;0.57;;;;;;;21.99;34.07;96109.81;5134773;27;20443;-58
2023/12/19 11:45:40;;;;;;;1.63;1.23;;;;;;;21.71;34.09;96108.59;5136037;27;20443;-58
2023/12/19 11:48:37;;;;;;;0.43;0.43;;;;;;;22.32;34.38;96095.72;5131706;27;20443;-58